createdAt,value
2022-10-01T00:05:02.043Z,10.30
2022-10-01T00:15:27.892Z,10.00
2022-10-01T00:25:52.894Z,9.70
2022-10-01T00:36:21.195Z,9.90
2022-10-01T00:46:48.160Z,9.80
2022-10-01T00:57:11.535Z,9.40
2022-10-01T01:07:35.354Z,9.20
2022-10-01T01:18:04.459Z,9.10
2022-10-01T01:28:36.438Z,9.10
2022-10-01T01:39:02.462Z,9.20
2022-10-01T01:49:26.944Z,9.10
2022-10-01T01:59:49.940Z,9.30
2022-10-01T02:10:24.304Z,9.20
2022-10-01T02:20:56.848Z,9.30
2022-10-01T02:31:22.231Z,9.40
2022-10-01T02:41:53.042Z,9.40
2022-10-01T02:52:27.665Z,9.20
2022-10-01T03:02:50.692Z,9.20
2022-10-01T03:13:13.596Z,9.30
2022-10-01T03:23:37.070Z,9.30
2022-10-01T03:34:02.200Z,9.40
2022-10-01T03:44:24.635Z,9.50
2022-10-01T03:54:51.548Z,9.70
2022-10-01T04:05:13.311Z,9.70
2022-10-01T04:15:40.256Z,9.80
2022-10-01T04:26:03.142Z,9.90
2022-10-01T04:36:27.386Z,9.70
2022-10-01T04:46:49.068Z,9.70
2022-10-01T04:57:12.445Z,9.80
2022-10-01T05:07:35.450Z,9.90
2022-10-01T05:17:58.616Z,9.90
2022-10-01T05:28:22.726Z,10.10
2022-10-01T05:38:45.967Z,10.20
2022-10-01T05:49:08.319Z,10.30
2022-10-01T05:59:32.156Z,10.60
2022-10-01T06:09:54.031Z,10.90
2022-10-01T06:20:19.054Z,11.10
2022-10-01T06:30:41.312Z,11.30
2022-10-01T06:41:05.276Z,11.50
2022-10-01T06:51:40.434Z,11.60
2022-10-01T07:02:03.341Z,11.70
2022-10-01T07:12:25.031Z,12.00
2022-10-01T07:22:49.176Z,12.10
2022-10-01T07:33:10.877Z,12.20
2022-10-01T07:43:36.215Z,12.50
2022-10-01T07:53:59.014Z,12.80
2022-10-01T08:04:40.477Z,13.20
2022-10-01T08:15:02.191Z,13.40
2022-10-01T08:25:25.942Z,13.50
2022-10-01T08:35:47.572Z,13.90
2022-10-01T08:46:14.875Z,14.10
2022-10-01T08:56:40.416Z,14.30
2022-10-01T09:07:08.108Z,14.60
2022-10-01T09:17:45.105Z,14.70
2022-10-01T09:28:15.697Z,15.00
2022-10-01T09:38:41.246Z,15.00
2022-10-01T09:49:12.928Z,15.00
2022-10-01T09:59:41.400Z,14.90
2022-10-01T10:10:23.416Z,14.60
2022-10-01T10:20:53.891Z,14.30
2022-10-01T10:31:20.252Z,13.70
2022-10-01T10:41:45.485Z,13.40
2022-10-01T10:52:20.740Z,13.30
2022-10-01T11:02:50.927Z,13.20
2022-10-01T11:13:34.758Z,13.20
2022-10-01T11:24:17.253Z,13.10
2022-10-01T11:34:58.163Z,13.20
2022-10-01T11:45:23.505Z,13.30
2022-10-01T11:56:12.236Z,13.30
2022-10-01T12:06:38.655Z,13.20
2022-10-01T12:17:12.123Z,13.20
2022-10-01T12:27:45.003Z,13.20
2022-10-01T12:38:20.607Z,13.30
2022-10-01T12:48:49.092Z,12.90
2022-10-01T12:59:25.670Z,12.90
2022-10-01T13:09:53.503Z,12.90
2022-10-01T13:20:26.095Z,13.00
2022-10-01T13:31:00.184Z,13.10
2022-10-01T13:41:26.149Z,13.30
2022-10-01T13:51:47.761Z,13.50
2022-10-01T14:02:34.923Z,13.90
2022-10-01T14:13:22.681Z,13.90
2022-10-01T14:23:55.793Z,14.00
2022-10-01T14:34:28.077Z,13.90
2022-10-01T14:44:54.588Z,14.40
2022-10-01T14:55:23.014Z,14.60
2022-10-01T15:05:49.289Z,14.60
2022-10-01T15:16:12.529Z,14.80
2022-10-01T15:26:35.957Z,14.90
2022-10-01T15:36:59.892Z,14.70
2022-10-01T15:47:34.834Z,14.80
2022-10-01T15:58:02.133Z,14.80
2022-10-01T16:08:34.185Z,14.70
2022-10-01T16:18:59.219Z,14.60
2022-10-01T16:29:25.524Z,14.50
2022-10-01T16:39:46.840Z,14.10
2022-10-01T16:50:13.596Z,13.90
2022-10-01T17:00:35.738Z,14.00
2022-10-01T17:11:01.260Z,13.80
2022-10-01T17:21:22.411Z,13.60
2022-10-01T17:31:47.818Z,13.50
2022-10-01T17:42:10.180Z,13.70
2022-10-01T17:52:33.216Z,13.90
2022-10-01T18:02:55.259Z,13.90
2022-10-01T18:13:18.072Z,13.90
2022-10-01T18:23:39.714Z,14.20
2022-10-01T18:34:08.884Z,14.40
2022-10-01T18:44:30.522Z,14.20
2022-10-01T18:55:21.315Z,14.40
2022-10-01T19:06:08.951Z,14.40
2022-10-01T19:16:46.061Z,14.40
2022-10-01T19:27:19.067Z,13.60
2022-10-01T19:37:46.965Z,13.60
2022-10-01T19:48:16.762Z,13.40
2022-10-01T19:58:39.763Z,13.40
2022-10-01T20:09:04.740Z,13.10
2022-10-01T20:19:32.284Z,13.00
2022-10-01T20:30:04.267Z,12.80
2022-10-01T20:40:31.153Z,12.70
2022-10-01T20:50:55.565Z,12.70
2022-10-01T21:01:21.510Z,12.60
2022-10-01T21:11:46.603Z,12.30
2022-10-01T21:22:21.570Z,12.40
2022-10-01T21:33:05.209Z,12.40
2022-10-01T21:43:40.247Z,12.30
2022-10-01T21:54:20.130Z,12.30
2022-10-01T22:04:48.615Z,12.20
2022-10-01T22:15:21.925Z,12.30
2022-10-01T22:25:52.399Z,12.20
2022-10-01T22:36:19.275Z,12.30
2022-10-01T22:47:05.963Z,12.10
2022-10-01T22:57:41.673Z,12.20
2022-10-01T23:08:17.504Z,12.10
2022-10-01T23:18:47.336Z,12.10
2022-10-01T23:29:34.201Z,12.20
2022-10-01T23:40:00.062Z,12.10
2022-10-01T23:50:31.285Z,12.00
